Terminal Aerodrome Forecast
Issued by NWS St Louis, MO

Home | Current Version | Previous Version | Text Only | Print | Product List | Glossary On
Versions: 1 2 3 4 5 6 7 8 9 10 11 12 13 14 15 16 17 18 19 20 21 22 23 24 25 26 27 28 29 30 31
924
FTUS43 KLSX 240520
TAFCOU
TAF
KCOU 240520Z 2406/2506 16012KT P6SM BKN250 WS015/20050KT
      TEMPO 2406/2408 23015G25KT 6SM -TSRA SCT035 BKN050CB
     FM241000 20010KT P6SM SCT010 BKN140
     FM241200 27012G19KT P6SM BKN008
     FM241700 27015G22KT P6SM BKN015
     FM242000 27015G22KT P6SM BKN025
     FM250300 29015G25KT P6SM OVC015=

USA.gov is the U.S. government's official web portal to all federal, state and local government web resources and services.